• Join FlightAware (Why Join?)
  • Login
  • US Flag 
12:28AM EDT


 

Airport Tracker/Info


-or-


 

Live Flight TrackerFlight Track Log ✈ DAL6057 ✈ 15-Apr-2013 ✈ KCMH - KDTW

Flight Track Log - Related Links

Times and Time Zones

All times are in EDT time to prevent confusion due to time zone crossing. See the DAL6057 flight status page for this flight to view local times or setup timezone preferences in your user account.

Time Position Orientation Groundspeed Altitude Reporting Facility
EDT Latitude Longitude Course Direction KTS MPH feet Rate Location/Type
06:38AM 40.0025 -82.8803 92° East 157 181 1,100  Level Indianapolis Center
06:38AM 40.0019 -82.8556 92° East 167 192 2,000 1,740 Climbing Indianapolis Center
06:39AM 40.0058 -82.7856 86° East 202 232 3,600 2,040 Climbing Indianapolis Center
06:40AM 40.0631 -82.7372 33° Northeast 255 293 6,200 2,460 Climbing Indianapolis Center
06:41AM 40.1375 -82.7033 19° North 279 321 8,600 2,040 Climbing Indianapolis Center
06:42AM 40.2156 -82.6689 19° North 291 335 10,400 1,800 Climbing Indianapolis Center
06:43AM 40.3069 -82.6297 18° North 323 372 12,300 1,920 Climbing Indianapolis Center
06:44AM 40.3961 -82.5900 19° North 333 383 14,300 1,320 Climbing Indianapolis Center
06:45AM 40.4878 -82.5506 18° North 344 396 15,000 240 Climbing Indianapolis Center
06:46AM 40.5903 -82.5058 18° North 379 436 14,900 -60 Descending Indianapolis Center
06:47AM 40.6950 -82.4572 19° North 393 452 14,900  Level Indianapolis Center
06:48AM 40.8025 -82.4108 18° North 401 461 15,000 60 Climbing Indianapolis Center
06:49AM 40.9086 -82.3631 19° North 399 459 15,100  Climbing Indianapolis Center
06:50AM 41.0142 -82.3156 19° North 396 456 15,100  Level Indianapolis Center
06:52AM 41.1200 -82.2700 18° North 386 444 15,100  Level Cleveland Center
06:53AM 41.2228 -82.2228 19° North 386 444 15,100  Level Cleveland Center
06:54AM 41.3369 -82.2592 347° North 370 426 15,100  Level Cleveland Center
06:55AM 41.4144 -82.3661 314° West 370 426 15,100 -300 Level Cleveland Center
06:55AM 41.4797 -82.4511 316° Northwest 390 449 14,600 -1,200 Descending Cleveland Center
06:56AM 41.5267 -82.5136 315° West 352 405 13,300 -1,860 Descending Cleveland Center
06:57AM 41.5594 -82.5589 314° West 362 417 12,400 -840 Descending Cleveland Center
06:58AM 41.6264 -82.6500 315° West 343 395 12,100 -300 Descending Cleveland Center
06:58AM 41.6508 -82.6842 314° West 347 399 12,000 -120 Descending Cleveland Center
06:59AM 41.6936 -82.7411 315° West 343 395 12,000  Level Cleveland Center
06:59AM 41.7303 -82.7839 319° Northwest 350 403 12,000  Level Cleveland Center
07:00AM 41.7650 -82.8297 315° West 343 395 12,000  Level Cleveland Center
07:00AM 41.7994 -82.8728 317° Northwest 340 391 12,000  Level Cleveland Center
07:01AM 41.8175 -82.9042 308° West 343 395 12,000  Level Cleveland Center
07:01AM 41.8683 -82.9672 317° Northwest 345 397 12,000  Level Cleveland Center
07:02AM 41.8986 -83.0131 312° West 343 395 12,000  Level Cleveland Center
07:02AM 41.9394 -83.0647 317° Northwest 353 406 12,000  Level Cleveland Center
07:03AM 41.9697 -83.1022 317° Northwest 343 395 12,000  Level Cleveland Center
07:03AM 42.0083 -83.1569 314° West 354 407 12,000  Level Cleveland Center
07:04AM 42.0325 -83.1886 316° Northwest 343 395 12,000  Level Cleveland Center
07:04AM 42.0892 -83.2608 317° Northwest 352 405 12,000  Level Cleveland Center
07:05AM 42.1033 -83.2756 322° Northwest 343 395 12,000 -120 Level Cleveland Center
07:05AM 42.1519 -83.3419 315° West 326 375 11,900 -600 Descending Cleveland Center
07:06AM 42.2289 -83.4350 318° Northwest 299 344 10,900 -960 Descending Cleveland Center
07:07AM 42.2886 -83.4686 337° Northwest 298 343 10,000 -1,620 Descending Cleveland Center
07:08AM 42.3542 -83.4294 24° Northeast 260 299 8,200 -1,800 Descending Cleveland Center
07:09AM 42.4081 -83.3531 46° Northeast 255 293 6,300 -1,980 Descending Cleveland Center
07:10AM 42.3717 -83.3067 137° Southeast 185 213 4,000 -1,740 Descending Cleveland Center
07:11AM 42.3281 -83.2992 173° South 148 170 2,800 -960 Descending Cleveland Center
07:12AM 42.2922 -83.3200 203° Southwest 144 166 2,100 -720 Descending Cleveland Center